Terminal Aerodrome Forecast
Issued by NWS Sterling, VA

Current Version | Previous Version | Graphics & Text | Print | Product List | Glossary On
Versions: 1 2 3 4 5 6 7 8 9 10 11 12
000
FTUS41 KLWX 142300
TAFMRB
TAF
KMRB 142323Z 1500/1524 00000KT P6SM FEW080
     FM150500 00000KT 5SM BR FEW070
     FM150800 00000KT 2SM BR FEW045
     FM151000 00000KT 1/2SM FG FEW060
     FM151200 00000KT 3SM BR FEW080
     FM151300 VRB03KT P6SM FEW120=

USA.gov is the U.S. government's official web portal to all federal, state and local government web resources and services.